sensor_id;sensor_type;location;lat;lon;timestamp;P1;durP1;ratioP1;P2;durP2;ratioP2
24459;SDS011;12630;50.860;5.714;2022-10-17T00:01:40;8.65;;;5.38;;
24459;SDS011;12630;50.860;5.714;2022-10-17T00:04:07;8.30;;;5.72;;
24459;SDS011;12630;50.860;5.714;2022-10-17T00:06:34;7.40;;;5.38;;
24459;SDS011;12630;50.860;5.714;2022-10-17T00:09:02;6.63;;;5.75;;
24459;SDS011;12630;50.860;5.714;2022-10-17T00:11:31;8.38;;;5.20;;
24459;SDS011;12630;50.860;5.714;2022-10-17T00:13:58;6.25;;;5.43;;
24459;SDS011;12630;50.860;5.714;2022-10-17T00:16:26;8.73;;;5.70;;
24459;SDS011;12630;50.860;5.714;2022-10-17T00:18:55;7.20;;;5.68;;
24459;SDS011;12630;50.860;5.714;2022-10-17T00:21:23;6.60;;;5.50;;
24459;SDS011;12630;50.860;5.714;2022-10-17T00:23:52;7.82;;;5.82;;
24459;SDS011;12630;50.860;5.714;2022-10-17T00:26:20;7.22;;;5.82;;
24459;SDS011;12630;50.860;5.714;2022-10-17T00:28:49;6.82;;;5.15;;
24459;SDS011;12630;50.860;5.714;2022-10-17T00:31:18;6.60;;;5.45;;
24459;SDS011;12630;50.860;5.714;2022-10-17T00:33:46;8.50;;;5.78;;
24459;SDS011;12630;50.860;5.714;2022-10-17T00:36:14;8.32;;;5.47;;
24459;SDS011;12630;50.860;5.714;2022-10-17T00:38:44;10.30;;;5.93;;
24459;SDS011;12630;50.860;5.714;2022-10-17T00:41:14;7.07;;;5.57;;
24459;SDS011;12630;50.860;5.714;2022-10-17T00:43:55;6.25;;;5.10;;
24459;SDS011;12630;50.860;5.714;2022-10-17T00:46:25;6.97;;;4.90;;
24459;SDS011;12630;50.860;5.714;2022-10-17T00:48:54;5.78;;;5.05;;
24459;SDS011;12630;50.860;5.714;2022-10-17T00:51:24;7.72;;;4.90;;
24459;SDS011;12630;50.860;5.714;2022-10-17T00:53:56;11.38;;;5.28;;
24459;SDS011;12630;50.860;5.714;2022-10-17T00:56:24;7.63;;;4.95;;
24459;SDS011;12630;50.860;5.714;2022-10-17T00:58:52;7.13;;;5.53;;
24459;SDS011;12630;50.860;5.714;2022-10-17T01:01:21;7.55;;;4.82;;
24459;SDS011;12630;50.860;5.714;2022-10-17T01:03:48;5.65;;;4.88;;
24459;SDS011;12630;50.860;5.714;2022-10-17T01:06:15;8.02;;;5.50;;
24459;SDS011;12630;50.860;5.714;2022-10-17T01:08:43;6.18;;;5.00;;
24459;SDS011;12630;50.860;5.714;2022-10-17T01:11:13;5.50;;;4.68;;
24459;SDS011;12630;50.860;5.714;2022-10-17T01:13:48;6.68;;;4.60;;
24459;SDS011;12630;50.860;5.714;2022-10-17T01:16:24;6.65;;;5.07;;
24459;SDS011;12630;50.860;5.714;2022-10-17T01:19:01;6.90;;;4.03;;
24459;SDS011;12630;50.860;5.714;2022-10-17T01:21:43;10.98;;;5.07;;
24459;SDS011;12630;50.860;5.714;2022-10-17T01:27:15;7.72;;;4.53;;
24459;SDS011;12630;50.860;5.714;2022-10-17T01:29:58;8.50;;;4.47;;
24459;SDS011;12630;50.860;5.714;2022-10-17T01:32:44;7.22;;;4.65;;
24459;SDS011;12630;50.860;5.714;2022-10-17T01:35:16;9.88;;;5.03;;
24459;SDS011;12630;50.860;5.714;2022-10-17T01:37:49;8.77;;;4.53;;
24459;SDS011;12630;50.860;5.714;2022-10-17T01:40:22;5.65;;;4.50;;
24459;SDS011;12630;50.860;5.714;2022-10-17T01:42:55;5.72;;;4.47;;
24459;SDS011;12630;50.860;5.714;2022-10-17T01:45:27;5.55;;;3.95;;
24459;SDS011;12630;50.860;5.714;2022-10-17T01:48:00;4.72;;;3.70;;
24459;SDS011;12630;50.860;5.714;2022-10-17T01:50:32;7.85;;;4.32;;
24459;SDS011;12630;50.860;5.714;2022-10-17T01:53:03;6.40;;;4.38;;
24459;SDS011;12630;50.860;5.714;2022-10-17T01:55:36;6.15;;;4.53;;
24459;SDS011;12630;50.860;5.714;2022-10-17T01:58:07;5.47;;;3.83;;
24459;SDS011;12630;50.860;5.714;2022-10-17T02:00:37;5.57;;;4.32;;
24459;SDS011;12630;50.860;5.714;2022-10-17T02:03:08;5.35;;;4.40;;
24459;SDS011;12630;50.860;5.714;2022-10-17T02:05:39;8.73;;;3.75;;
24459;SDS011;12630;50.860;5.714;2022-10-17T02:08:08;5.55;;;3.78;;
24459;SDS011;12630;50.860;5.714;2022-10-17T02:10:35;5.03;;;3.92;;
24459;SDS011;12630;50.860;5.714;2022-10-17T02:13:08;6.60;;;4.00;;
24459;SDS011;12630;50.860;5.714;2022-10-17T02:15:46;7.20;;;3.72;;
24459;SDS011;12630;50.860;5.714;2022-10-17T02:18:42;4.88;;;3.92;;
24459;SDS011;12630;50.860;5.714;2022-10-17T02:21:17;5.13;;;4.07;;
24459;SDS011;12630;50.860;5.714;2022-10-17T02:23:50;6.05;;;4.25;;
24459;SDS011;12630;50.860;5.714;2022-10-17T02:26:23;10.63;;;4.18;;
24459;SDS011;12630;50.860;5.714;2022-10-17T02:28:55;4.15;;;3.70;;
24459;SDS011;12630;50.860;5.714;2022-10-17T02:31:30;5.00;;;3.60;;
24459;SDS011;12630;50.860;5.714;2022-10-17T02:34:05;6.38;;;3.72;;
24459;SDS011;12630;50.860;5.714;2022-10-17T02:36:37;5.40;;;3.35;;
24459;SDS011;12630;50.860;5.714;2022-10-17T02:39:07;5.40;;;3.38;;
24459;SDS011;12630;50.860;5.714;2022-10-17T02:41:36;6.50;;;3.72;;
24459;SDS011;12630;50.860;5.714;2022-10-17T02:44:05;6.67;;;3.33;;
24459;SDS011;12630;50.860;5.714;2022-10-17T02:46:34;7.80;;;3.65;;
24459;SDS011;12630;50.860;5.714;2022-10-17T02:49:04;3.95;;;3.53;;
24459;SDS011;12630;50.860;5.714;2022-10-17T02:51:41;5.63;;;3.25;;
24459;SDS011;12630;50.860;5.714;2022-10-17T02:54:11;7.88;;;3.70;;
24459;SDS011;12630;50.860;5.714;2022-10-17T02:56:46;4.78;;;3.80;;
24459;SDS011;12630;50.860;5.714;2022-10-17T02:59:16;7.22;;;4.07;;
24459;SDS011;12630;50.860;5.714;2022-10-17T03:01:47;6.50;;;3.83;;
24459;SDS011;12630;50.860;5.714;2022-10-17T03:04:17;6.93;;;4.15;;
24459;SDS011;12630;50.860;5.714;2022-10-17T03:06:45;7.97;;;4.20;;
24459;SDS011;12630;50.860;5.714;2022-10-17T03:09:14;6.63;;;3.77;;
24459;SDS011;12630;50.860;5.714;2022-10-17T03:11:41;9.82;;;4.15;;
24459;SDS011;12630;50.860;5.714;2022-10-17T03:14:08;6.05;;;3.67;;
24459;SDS011;12630;50.860;5.714;2022-10-17T03:16:35;5.90;;;4.00;;
24459;SDS011;12630;50.860;5.714;2022-10-17T03:19:03;7.30;;;4.07;;
24459;SDS011;12630;50.860;5.714;2022-10-17T03:21:31;7.25;;;4.57;;
24459;SDS011;12630;50.860;5.714;2022-10-17T03:24:00;5.07;;;3.60;;
24459;SDS011;12630;50.860;5.714;2022-10-17T03:26:28;5.85;;;3.95;;
24459;SDS011;12630;50.860;5.714;2022-10-17T03:28:55;6.78;;;3.47;;
24459;SDS011;12630;50.860;5.714;2022-10-17T03:31:22;8.55;;;3.72;;
24459;SDS011;12630;50.860;5.714;2022-10-17T03:33:49;5.50;;;3.63;;
24459;SDS011;12630;50.860;5.714;2022-10-17T03:36:17;4.97;;;3.40;;
24459;SDS011;12630;50.860;5.714;2022-10-17T03:38:46;6.35;;;3.63;;
24459;SDS011;12630;50.860;5.714;2022-10-17T03:41:13;5.40;;;3.95;;
24459;SDS011;12630;50.860;5.714;2022-10-17T03:43:40;8.38;;;4.07;;
24459;SDS011;12630;50.860;5.714;2022-10-17T03:46:08;5.90;;;3.85;;
24459;SDS011;12630;50.860;5.714;2022-10-17T03:48:35;7.38;;;4.20;;
24459;SDS011;12630;50.860;5.714;2022-10-17T03:51:03;4.47;;;3.55;;
24459;SDS011;12630;50.860;5.714;2022-10-17T03:53:31;7.05;;;4.07;;
24459;SDS011;12630;50.860;5.714;2022-10-17T03:56:09;4.72;;;3.15;;
24459;SDS011;12630;50.860;5.714;2022-10-17T03:58:37;6.72;;;3.65;;
24459;SDS011;12630;50.860;5.714;2022-10-17T04:01:06;10.60;;;3.45;;
24459;SDS011;12630;50.860;5.714;2022-10-17T04:03:34;5.05;;;3.95;;
24459;SDS011;12630;50.860;5.714;2022-10-17T04:06:01;4.78;;;3.53;;
24459;SDS011;12630;50.860;5.714;2022-10-17T04:08:30;4.82;;;3.35;;
24459;SDS011;12630;50.860;5.714;2022-10-17T04:10:57;6.68;;;3.42;;
24459;SDS011;12630;50.860;5.714;2022-10-17T04:13:26;6.35;;;3.08;;
24459;SDS011;12630;50.860;5.714;2022-10-17T04:15:54;3.58;;;3.20;;
24459;SDS011;12630;50.860;5.714;2022-10-17T04:18:22;4.65;;;2.88;;
24459;SDS011;12630;50.860;5.714;2022-10-17T04:20:49;5.05;;;3.10;;
24459;SDS011;12630;50.860;5.714;2022-10-17T04:23:17;7.22;;;2.92;;
24459;SDS011;12630;50.860;5.714;2022-10-17T04:25:45;5.63;;;3.08;;
24459;SDS011;12630;50.860;5.714;2022-10-17T04:28:12;6.85;;;2.95;;
24459;SDS011;12630;50.860;5.714;2022-10-17T04:30:40;5.47;;;3.00;;
24459;SDS011;12630;50.860;5.714;2022-10-17T04:33:08;6.05;;;3.10;;
24459;SDS011;12630;50.860;5.714;2022-10-17T04:35:35;4.75;;;3.33;;
24459;SDS011;12630;50.860;5.714;2022-10-17T04:38:02;6.10;;;2.92;;
24459;SDS011;12630;50.860;5.714;2022-10-17T04:40:29;8.35;;;3.28;;
24459;SDS011;12630;50.860;5.714;2022-10-17T04:42:56;4.93;;;3.58;;
24459;SDS011;12630;50.860;5.714;2022-10-17T04:45:23;8.15;;;3.80;;
24459;SDS011;12630;50.860;5.714;2022-10-17T04:47:52;4.47;;;3.30;;
24459;SDS011;12630;50.860;5.714;2022-10-17T04:50:19;5.53;;;3.40;;
24459;SDS011;12630;50.860;5.714;2022-10-17T04:52:46;7.88;;;4.07;;
24459;SDS011;12630;50.860;5.714;2022-10-17T04:55:13;4.43;;;3.30;;
24459;SDS011;12630;50.860;5.714;2022-10-17T04:57:41;8.32;;;4.03;;
24459;SDS011;12630;50.860;5.714;2022-10-17T05:00:08;6.60;;;3.60;;
24459;SDS011;12630;50.860;5.714;2022-10-17T05:02:36;7.00;;;4.00;;
24459;SDS011;12630;50.860;5.714;2022-10-17T05:05:05;8.32;;;3.70;;
24459;SDS011;12630;50.860;5.714;2022-10-17T05:07:33;4.38;;;3.60;;
24459;SDS011;12630;50.860;5.714;2022-10-17T05:10:00;4.88;;;3.50;;
24459;SDS011;12630;50.860;5.714;2022-10-17T05:12:27;10.27;;;3.78;;
24459;SDS011;12630;50.860;5.714;2022-10-17T05:14:54;7.30;;;3.17;;
24459;SDS011;12630;50.860;5.714;2022-10-17T05:17:22;6.72;;;3.42;;
24459;SDS011;12630;50.860;5.714;2022-10-17T05:19:49;8.35;;;3.50;;
24459;SDS011;12630;50.860;5.714;2022-10-17T05:22:18;4.47;;;3.35;;
24459;SDS011;12630;50.860;5.714;2022-10-17T05:24:45;5.40;;;3.45;;
24459;SDS011;12630;50.860;5.714;2022-10-17T05:27:12;5.57;;;3.78;;
24459;SDS011;12630;50.860;5.714;2022-10-17T05:29:40;5.90;;;3.63;;
24459;SDS011;12630;50.860;5.714;2022-10-17T05:32:07;7.55;;;3.83;;
24459;SDS011;12630;50.860;5.714;2022-10-17T05:34:34;3.95;;;2.83;;
24459;SDS011;12630;50.860;5.714;2022-10-17T05:37:01;3.97;;;3.05;;
24459;SDS011;12630;50.860;5.714;2022-10-17T05:39:30;4.47;;;3.17;;
24459;SDS011;12630;50.860;5.714;2022-10-17T05:41:57;5.43;;;3.70;;
24459;SDS011;12630;50.860;5.714;2022-10-17T05:44:24;3.80;;;3.08;;
24459;SDS011;12630;50.860;5.714;2022-10-17T05:46:52;5.72;;;2.92;;
24459;SDS011;12630;50.860;5.714;2022-10-17T05:49:19;4.28;;;2.90;;
24459;SDS011;12630;50.860;5.714;2022-10-17T05:51:46;7.53;;;3.05;;
24459;SDS011;12630;50.860;5.714;2022-10-17T05:54:14;4.82;;;3.17;;
24459;SDS011;12630;50.860;5.714;2022-10-17T05:56:42;6.40;;;3.38;;
24459;SDS011;12630;50.860;5.714;2022-10-17T05:59:10;3.80;;;3.10;;
24459;SDS011;12630;50.860;5.714;2022-10-17T06:01:37;6.20;;;3.45;;
24459;SDS011;12630;50.860;5.714;2022-10-17T06:04:04;5.50;;;2.60;;
24459;SDS011;12630;50.860;5.714;2022-10-17T06:06:31;6.15;;;2.80;;
24459;SDS011;12630;50.860;5.714;2022-10-17T06:09:01;7.20;;;3.30;;
24459;SDS011;12630;50.860;5.714;2022-10-17T06:11:28;7.95;;;2.92;;
24459;SDS011;12630;50.860;5.714;2022-10-17T06:13:57;5.25;;;2.80;;
24459;SDS011;12630;50.860;5.714;2022-10-17T06:16:25;7.88;;;3.70;;
24459;SDS011;12630;50.860;5.714;2022-10-17T06:18:52;6.13;;;3.05;;
24459;SDS011;12630;50.860;5.714;2022-10-17T06:21:21;6.90;;;3.30;;
24459;SDS011;12630;50.860;5.714;2022-10-17T06:23:50;6.80;;;3.25;;
24459;SDS011;12630;50.860;5.714;2022-10-17T06:26:17;6.15;;;2.95;;
24459;SDS011;12630;50.860;5.714;2022-10-17T06:28:45;4.70;;;2.88;;
24459;SDS011;12630;50.860;5.714;2022-10-17T06:31:14;7.25;;;3.17;;
24459;SDS011;12630;50.860;5.714;2022-10-17T06:33:42;10.73;;;3.20;;
24459;SDS011;12630;50.860;5.714;2022-10-17T06:36:10;7.88;;;3.08;;
24459;SDS011;12630;50.860;5.714;2022-10-17T06:38:39;7.22;;;3.42;;
24459;SDS011;12630;50.860;5.714;2022-10-17T06:41:08;4.38;;;2.85;;
24459;SDS011;12630;50.860;5.714;2022-10-17T06:43:38;3.63;;;2.50;;
24459;SDS011;12630;50.860;5.714;2022-10-17T06:46:07;8.15;;;3.00;;
24459;SDS011;12630;50.860;5.714;2022-10-17T06:48:37;6.57;;;2.90;;
24459;SDS011;12630;50.860;5.714;2022-10-17T06:51:05;4.05;;;2.72;;
24459;SDS011;12630;50.860;5.714;2022-10-17T06:53:34;6.35;;;2.75;;
24459;SDS011;12630;50.860;5.714;2022-10-17T06:56:01;8.10;;;2.97;;
24459;SDS011;12630;50.860;5.714;2022-10-17T06:58:29;6.05;;;3.25;;
24459;SDS011;12630;50.860;5.714;2022-10-17T07:00:58;5.65;;;2.67;;
24459;SDS011;12630;50.860;5.714;2022-10-17T07:03:25;6.65;;;2.83;;
24459;SDS011;12630;50.860;5.714;2022-10-17T07:05:54;5.22;;;2.90;;
24459;SDS011;12630;50.860;5.714;2022-10-17T07:08:22;6.15;;;2.78;;
24459;SDS011;12630;50.860;5.714;2022-10-17T07:10:50;5.13;;;3.00;;
24459;SDS011;12630;50.860;5.714;2022-10-17T07:13:17;6.75;;;2.92;;
24459;SDS011;12630;50.860;5.714;2022-10-17T07:15:45;6.88;;;2.70;;
24459;SDS011;12630;50.860;5.714;2022-10-17T07:18:12;5.90;;;3.03;;
24459;SDS011;12630;50.860;5.714;2022-10-17T07:20:40;8.57;;;2.88;;
24459;SDS011;12630;50.860;5.714;2022-10-17T07:23:09;8.77;;;2.97;;
24459;SDS011;12630;50.860;5.714;2022-10-17T07:25:36;4.93;;;2.70;;
24459;SDS011;12630;50.860;5.714;2022-10-17T07:28:03;8.07;;;2.75;;
24459;SDS011;12630;50.860;5.714;2022-10-17T07:30:31;6.15;;;2.72;;
24459;SDS011;12630;50.860;5.714;2022-10-17T07:32:58;5.90;;;2.78;;
24459;SDS011;12630;50.860;5.714;2022-10-17T07:35:26;4.43;;;2.60;;
24459;SDS011;12630;50.860;5.714;2022-10-17T07:37:53;10.10;;;3.22;;
24459;SDS011;12630;50.860;5.714;2022-10-17T07:40:22;5.25;;;2.50;;
24459;SDS011;12630;50.860;5.714;2022-10-17T07:42:49;5.45;;;2.75;;
24459;SDS011;12630;50.860;5.714;2022-10-17T07:45:17;4.35;;;2.53;;
24459;SDS011;12630;50.860;5.714;2022-10-17T07:47:44;7.85;;;2.42;;
24459;SDS011;12630;50.860;5.714;2022-10-17T07:50:12;7.20;;;2.50;;
24459;SDS011;12630;50.860;5.714;2022-10-17T07:52:39;7.72;;;2.75;;
24459;SDS011;12630;50.860;5.714;2022-10-17T07:55:07;5.95;;;2.58;;
24459;SDS011;12630;50.860;5.714;2022-10-17T07:57:36;5.72;;;2.80;;
24459;SDS011;12630;50.860;5.714;2022-10-17T08:00:05;5.03;;;2.67;;
24459;SDS011;12630;50.860;5.714;2022-10-17T08:02:33;4.00;;;2.40;;
24459;SDS011;12630;50.860;5.714;2022-10-17T08:05:01;3.17;;;2.47;;
24459;SDS011;12630;50.860;5.714;2022-10-17T08:07:28;6.82;;;2.42;;
24459;SDS011;12630;50.860;5.714;2022-10-17T08:09:56;6.85;;;3.17;;
24459;SDS011;12630;50.860;5.714;2022-10-17T08:12:23;7.25;;;2.55;;
24459;SDS011;12630;50.860;5.714;2022-10-17T08:14:52;10.43;;;2.30;;
24459;SDS011;12630;50.860;5.714;2022-10-17T08:17:20;6.93;;;2.43;;
24459;SDS011;12630;50.860;5.714;2022-10-17T08:19:47;6.57;;;2.60;;
24459;SDS011;12630;50.860;5.714;2022-10-17T08:22:14;6.65;;;2.40;;
24459;SDS011;12630;50.860;5.714;2022-10-17T08:24:42;2.90;;;2.50;;
24459;SDS011;12630;50.860;5.714;2022-10-17T08:27:10;5.55;;;3.17;;
24459;SDS011;12630;50.860;5.714;2022-10-17T08:29:38;4.18;;;2.30;;
24459;SDS011;12630;50.860;5.714;2022-10-17T08:32:07;6.70;;;2.22;;
24459;SDS011;12630;50.860;5.714;2022-10-17T08:34:34;4.63;;;2.10;;
24459;SDS011;12630;50.860;5.714;2022-10-17T08:37:02;6.45;;;2.45;;
24459;SDS011;12630;50.860;5.714;2022-10-17T08:39:29;5.82;;;2.50;;
24459;SDS011;12630;50.860;5.714;2022-10-17T08:42:01;5.43;;;2.58;;
24459;SDS011;12630;50.860;5.714;2022-10-17T08:44:40;5.35;;;3.05;;
24459;SDS011;12630;50.860;5.714;2022-10-17T08:47:18;5.57;;;2.67;;
24459;SDS011;12630;50.860;5.714;2022-10-17T08:49:52;7.05;;;2.13;;
24459;SDS011;12630;50.860;5.714;2022-10-17T08:52:25;9.75;;;2.83;;
24459;SDS011;12630;50.860;5.714;2022-10-17T08:54:58;5.20;;;2.72;;
24459;SDS011;12630;50.860;5.714;2022-10-17T08:57:25;5.57;;;2.53;;
24459;SDS011;12630;50.860;5.714;2022-10-17T08:59:53;6.75;;;2.30;;
24459;SDS011;12630;50.860;5.714;2022-10-17T09:02:36;7.10;;;2.80;;
24459;SDS011;12630;50.860;5.714;2022-10-17T09:05:20;7.40;;;2.40;;
24459;SDS011;12630;50.860;5.714;2022-10-17T09:07:59;8.75;;;3.08;;
24459;SDS011;12630;50.860;5.714;2022-10-17T09:10:36;6.30;;;3.53;;
24459;SDS011;12630;50.860;5.714;2022-10-17T09:13:18;6.50;;;2.28;;
24459;SDS011;12630;50.860;5.714;2022-10-17T09:15:57;10.15;;;3.25;;
24459;SDS011;12630;50.860;5.714;2022-10-17T09:18:37;8.18;;;2.60;;
24459;SDS011;12630;50.860;5.714;2022-10-17T09:21:11;7.22;;;2.42;;
24459;SDS011;12630;50.860;5.714;2022-10-17T09:23:46;12.88;;;2.70;;
24459;SDS011;12630;50.860;5.714;2022-10-17T09:26:16;7.72;;;2.67;;
24459;SDS011;12630;50.860;5.714;2022-10-17T09:28:43;7.40;;;2.65;;
24459;SDS011;12630;50.860;5.714;2022-10-17T09:31:19;10.55;;;3.17;;
24459;SDS011;12630;50.860;5.714;2022-10-17T09:33:50;6.68;;;2.47;;
24459;SDS011;12630;50.860;5.714;2022-10-17T09:36:21;12.57;;;2.65;;
24459;SDS011;12630;50.860;5.714;2022-10-17T09:38:51;6.28;;;3.00;;
24459;SDS011;12630;50.860;5.714;2022-10-17T09:41:21;6.78;;;2.55;;
24459;SDS011;12630;50.860;5.714;2022-10-17T09:43:52;8.38;;;2.83;;
24459;SDS011;12630;50.860;5.714;2022-10-17T09:46:23;10.63;;;2.70;;
24459;SDS011;12630;50.860;5.714;2022-10-17T09:48:57;10.85;;;2.33;;
24459;SDS011;12630;50.860;5.714;2022-10-17T09:51:28;7.03;;;2.90;;
24459;SDS011;12630;50.860;5.714;2022-10-17T09:53:58;8.73;;;2.65;;
24459;SDS011;12630;50.860;5.714;2022-10-17T09:56:29;6.15;;;2.55;;
24459;SDS011;12630;50.860;5.714;2022-10-17T09:58:56;14.23;;;2.90;;
24459;SDS011;12630;50.860;5.714;2022-10-17T10:01:24;5.75;;;2.67;;
24459;SDS011;12630;50.860;5.714;2022-10-17T10:04:09;7.20;;;3.13;;
24459;SDS011;12630;50.860;5.714;2022-10-17T10:06:38;7.03;;;2.95;;
24459;SDS011;12630;50.860;5.714;2022-10-17T10:09:16;10.05;;;3.60;;
24459;SDS011;12630;50.860;5.714;2022-10-17T10:11:48;5.38;;;2.92;;
24459;SDS011;12630;50.860;5.714;2022-10-17T10:14:19;8.77;;;3.45;;
24459;SDS011;12630;50.860;5.714;2022-10-17T10:16:49;8.57;;;3.78;;
24459;SDS011;12630;50.860;5.714;2022-10-17T10:19:25;9.95;;;3.70;;
24459;SDS011;12630;50.860;5.714;2022-10-17T10:21:56;14.82;;;3.50;;
24459;SDS011;12630;50.860;5.714;2022-10-17T10:24:24;5.33;;;3.43;;
24459;SDS011;12630;50.860;5.714;2022-10-17T10:26:52;5.57;;;3.00;;
24459;SDS011;12630;50.860;5.714;2022-10-17T10:29:23;11.23;;;3.35;;
24459;SDS011;12630;50.860;5.714;2022-10-17T10:31:55;8.90;;;3.13;;
24459;SDS011;12630;50.860;5.714;2022-10-17T10:34:33;10.10;;;2.90;;
24459;SDS011;12630;50.860;5.714;2022-10-17T10:37:03;8.25;;;2.60;;
24459;SDS011;12630;50.860;5.714;2022-10-17T10:39:41;8.10;;;3.00;;
24459;SDS011;12630;50.860;5.714;2022-10-17T10:45:01;4.68;;;2.65;;
24459;SDS011;12630;50.860;5.714;2022-10-17T10:47:47;7.97;;;2.97;;
24459;SDS011;12630;50.860;5.714;2022-10-17T10:50:20;4.88;;;3.03;;
24459;SDS011;12630;50.860;5.714;2022-10-17T10:52:55;3.75;;;2.75;;
24459;SDS011;12630;50.860;5.714;2022-10-17T10:55:35;6.72;;;3.03;;
24459;SDS011;12630;50.860;5.714;2022-10-17T10:58:12;10.50;;;3.40;;
24459;SDS011;12630;50.860;5.714;2022-10-17T11:00:49;7.97;;;2.92;;
24459;SDS011;12630;50.860;5.714;2022-10-17T11:03:18;5.40;;;2.80;;
24459;SDS011;12630;50.860;5.714;2022-10-17T11:05:53;6.13;;;2.50;;
24459;SDS011;12630;50.860;5.714;2022-10-17T11:08:27;8.93;;;2.97;;
24459;SDS011;12630;50.860;5.714;2022-10-17T11:10:59;7.72;;;2.88;;
24459;SDS011;12630;50.860;5.714;2022-10-17T11:13:35;8.07;;;2.58;;
24459;SDS011;12630;50.860;5.714;2022-10-17T11:16:11;6.10;;;2.67;;
24459;SDS011;12630;50.860;5.714;2022-10-17T11:18:46;4.55;;;2.50;;
24459;SDS011;12630;50.860;5.714;2022-10-17T11:21:18;4.90;;;2.45;;
24459;SDS011;12630;50.860;5.714;2022-10-17T11:23:55;4.68;;;2.58;;
24459;SDS011;12630;50.860;5.714;2022-10-17T11:26:28;4.60;;;2.50;;
24459;SDS011;12630;50.860;5.714;2022-10-17T11:29:00;3.97;;;2.53;;
24459;SDS011;12630;50.860;5.714;2022-10-17T11:31:31;6.95;;;2.70;;
24459;SDS011;12630;50.860;5.714;2022-10-17T11:34:02;4.30;;;2.60;;
24459;SDS011;12630;50.860;5.714;2022-10-17T11:36:34;6.90;;;2.40;;
24459;SDS011;12630;50.860;5.714;2022-10-17T11:39:06;9.70;;;2.25;;
24459;SDS011;12630;50.860;5.714;2022-10-17T11:41:40;11.00;;;2.78;;
24459;SDS011;12630;50.860;5.714;2022-10-17T11:44:13;8.48;;;2.47;;
24459;SDS011;12630;50.860;5.714;2022-10-17T11:46:46;4.25;;;2.33;;
24459;SDS011;12630;50.860;5.714;2022-10-17T11:49:17;7.03;;;2.20;;
24459;SDS011;12630;50.860;5.714;2022-10-17T11:51:51;5.85;;;2.53;;
24459;SDS011;12630;50.860;5.714;2022-10-17T11:54:23;5.03;;;2.20;;
24459;SDS011;12630;50.860;5.714;2022-10-17T11:56:57;7.25;;;2.63;;
24459;SDS011;12630;50.860;5.714;2022-10-17T12:02:30;6.13;;;2.17;;
24459;SDS011;12630;50.860;5.714;2022-10-17T12:05:03;8.23;;;2.38;;
24459;SDS011;12630;50.860;5.714;2022-10-17T12:10:17;8.57;;;2.20;;
24459;SDS011;12630;50.860;5.714;2022-10-17T12:12:57;4.43;;;2.20;;
24459;SDS011;12630;50.860;5.714;2022-10-17T12:22:00;6.50;;;2.63;;
24459;SDS011;12630;50.860;5.714;2022-10-17T12:24:33;3.65;;;1.90;;
24459;SDS011;12630;50.860;5.714;2022-10-17T12:27:20;6.72;;;2.60;;
24459;SDS011;12630;50.860;5.714;2022-10-17T12:29:59;5.00;;;2.20;;
24459;SDS011;12630;50.860;5.714;2022-10-17T12:32:27;5.07;;;2.55;;
24459;SDS011;12630;50.860;5.714;2022-10-17T12:34:55;6.45;;;2.15;;
